TimeMDT,TemperatureF,Dew PointF,Humidity,Sea Level PressureIn,VisibilityMPH,Wind Direction,Wind SpeedMPH,Gust SpeedMPH,PrecipitationIn,Events,Conditions,WindDirDegrees,DateUTC
12:53 AM,25.0,19.9,81,30.52,10.0,SW,6.9,-,N/A,,Clear,220,2013-10-05 06:53:00
1:53 AM,24.1,19.0,81,30.52,10.0,SSE,4.6,-,N/A,,Clear,150,2013-10-05 07:53:00
2:53 AM,21.9,17.1,82,30.52,10.0,SW,6.9,-,N/A,,Clear,220,2013-10-05 08:53:00
3:53 AM,23.0,18.0,81,30.53,10.0,WSW,4.6,-,N/A,,Clear,240,2013-10-05 09:53:00
4:53 AM,23.0,18.0,81,30.50,10.0,Calm,Calm,-,N/A,,Clear,0,2013-10-05 10:53:00
5:53 AM,23.0,19.0,85,30.49,10.0,SW,8.1,-,N/A,,Clear,220,2013-10-05 11:53:00
6:53 AM,21.0,16.0,81,30.51,10.0,SW,6.9,-,N/A,,Clear,220,2013-10-05 12:53:00
7:53 AM,21.9,17.1,82,30.56,10.0,SW,4.6,-,N/A,,Clear,230,2013-10-05 13:53:00
8:53 AM,26.1,19.0,75,30.54,10.0,South,4.6,-,N/A,,Clear,180,2013-10-05 14:53:00
9:53 AM,32.0,24.1,73,30.53,10.0,SW,6.9,-,N/A,,Clear,220,2013-10-05 15:53:00
10:53 AM,35.1,23.0,61,30.53,10.0,SW,5.8,-,N/A,,Clear,230,2013-10-05 16:53:00
11:53 AM,37.9,23.0,55,30.51,10.0,SSW,5.8,-,N/A,,Clear,200,2013-10-05 17:53:00
12:53 PM,41.0,24.1,51,30.48,10.0,South,6.9,-,N/A,,Clear,190,2013-10-05 18:53:00
1:53 PM,46.0,18.0,33,30.44,10.0,SSW,6.9,-,N/A,,Clear,210,2013-10-05 19:53:00
2:53 PM,50.0,17.1,27,30.41,10.0,SSW,5.8,-,N/A,,Clear,210,2013-10-05 20:53:00
3:53 PM,52.0,17.1,25,30.38,10.0,South,6.9,-,N/A,,Clear,180,2013-10-05 21:53:00
4:53 PM,54.0,21.0,28,30.36,10.0,South,5.8,-,N/A,,Clear,190,2013-10-05 22:53:00
5:53 PM,53.1,27.0,37,30.37,10.0,SW,6.9,-,N/A,,Clear,220,2013-10-05 23:53:00
6:53 PM,46.9,30.0,52,30.41,10.0,WNW,5.8,-,N/A,,Clear,290,2013-10-06 00:53:00
7:53 PM,41.0,30.0,65,30.44,10.0,SSE,4.6,-,N/A,,Clear,160,2013-10-06 01:53:00
8:53 PM,39.0,28.9,67,30.45,10.0,SSW,5.8,-,N/A,,Clear,210,2013-10-06 02:53:00
9:53 PM,39.9,28.9,65,30.43,10.0,SSE,4.6,-,N/A,,Clear,160,2013-10-06 03:53:00
10:53 PM,35.1,28.0,76,30.43,10.0,SSW,9.2,-,N/A,,Clear,210,2013-10-06 04:53:00
11:53 PM,37.0,28.9,73,30.40,10.0,SSW,9.2,-,N/A,,Clear,200,2013-10-06 05:53:00